Main page
METAR-TAF:

METAR-TAF

Airports :

Atlantic Municipal Airport

Atlantic, Iowa, United States

latitude: 41-24N, longitude: 095-03W, elevation: 1181 ft

Current weather observation

The report was made 46 minutes ago, at 08:35 UTC
Wind 10 mph from the West/Northwest
Temperature 52°F
Humidity 82%
Pressure 29.81 in. Hg
Visibility: 10 miles
Clear sky

METAR: KAIO 220835Z AUTO 29009KT 10SM CLR 11/08 A2981 RMK AO2

Time: 04:21 (09:21 UTC)


TAF: missing

Weather observations and forecasts of more than 4000 airports (METAR and TAF reports).

The available stations are represented by yellow and red dots on the map.

Hover mouse over dot to see the name of the station.

Then click to see weather observations and forecasts.

To change the map : click on the green buttons with a black cross to zoom in, on the green button with a dash to zoom out, or on the green arrows for adjacent maps.


METAR-TAF: